sensor_id;sensor_type;location;lat;lon;timestamp;P1;durP1;ratioP1;P2;durP2;ratioP2
10418;SDS011;5256;48.728;9.140;2023-07-02T00:00:57;0.30;;;0.30;;
10418;SDS011;5256;48.728;9.140;2023-07-02T00:03:24;0.30;;;0.30;;
10418;SDS011;5256;48.728;9.140;2023-07-02T00:05:50;0.40;;;0.40;;
10418;SDS011;5256;48.728;9.140;2023-07-02T00:08:19;0.30;;;0.30;;
10418;SDS011;5256;48.728;9.140;2023-07-02T00:10:45;0.30;;;0.30;;
10418;SDS011;5256;48.728;9.140;2023-07-02T00:13:10;0.30;;;0.30;;
10418;SDS011;5256;48.728;9.140;2023-07-02T00:15:36;0.30;;;0.30;;
10418;SDS011;5256;48.728;9.140;2023-07-02T00:18:02;0.30;;;0.30;;
10418;SDS011;5256;48.728;9.140;2023-07-02T00:20:27;0.30;;;0.30;;
10418;SDS011;5256;48.728;9.140;2023-07-02T00:22:55;0.30;;;0.30;;
10418;SDS011;5256;48.728;9.140;2023-07-02T00:25:21;0.30;;;0.30;;
10418;SDS011;5256;48.728;9.140;2023-07-02T00:27:46;0.30;;;0.30;;
10418;SDS011;5256;48.728;9.140;2023-07-02T00:30:12;0.30;;;0.30;;
10418;SDS011;5256;48.728;9.140;2023-07-02T00:32:38;0.30;;;0.30;;
10418;SDS011;5256;48.728;9.140;2023-07-02T00:35:04;0.40;;;0.40;;
10418;SDS011;5256;48.728;9.140;2023-07-02T00:37:29;0.30;;;0.30;;
10418;SDS011;5256;48.728;9.140;2023-07-02T00:39:55;0.30;;;0.30;;
10418;SDS011;5256;48.728;9.140;2023-07-02T00:42:20;0.30;;;0.30;;
10418;SDS011;5256;48.728;9.140;2023-07-02T00:44:48;0.40;;;0.40;;
10418;SDS011;5256;48.728;9.140;2023-07-02T00:47:14;0.30;;;0.30;;
10418;SDS011;5256;48.728;9.140;2023-07-02T00:49:41;0.30;;;0.30;;
10418;SDS011;5256;48.728;9.140;2023-07-02T00:52:06;0.40;;;0.40;;
10418;SDS011;5256;48.728;9.140;2023-07-02T00:54:32;0.30;;;0.30;;
10418;SDS011;5256;48.728;9.140;2023-07-02T00:56:58;0.30;;;0.30;;
10418;SDS011;5256;48.728;9.140;2023-07-02T00:59:29;0.30;;;0.30;;
10418;SDS011;5256;48.728;9.140;2023-07-02T01:01:55;0.30;;;0.30;;
10418;SDS011;5256;48.728;9.140;2023-07-02T01:04:21;0.30;;;0.30;;
10418;SDS011;5256;48.728;9.140;2023-07-02T01:06:52;0.40;;;0.40;;
10418;SDS011;5256;48.728;9.140;2023-07-02T01:09:22;0.40;;;0.40;;
10418;SDS011;5256;48.728;9.140;2023-07-02T01:11:51;0.30;;;0.30;;
10418;SDS011;5256;48.728;9.140;2023-07-02T01:16:50;0.30;;;0.30;;
10418;SDS011;5256;48.728;9.140;2023-07-02T01:19:19;0.30;;;0.30;;
10418;SDS011;5256;48.728;9.140;2023-07-02T01:21:50;0.30;;;0.30;;
10418;SDS011;5256;48.728;9.140;2023-07-02T01:24:16;0.30;;;0.30;;
10418;SDS011;5256;48.728;9.140;2023-07-02T01:26:42;0.30;;;0.30;;
10418;SDS011;5256;48.728;9.140;2023-07-02T01:29:20;0.40;;;0.40;;
10418;SDS011;5256;48.728;9.140;2023-07-02T01:31:47;0.30;;;0.30;;
10418;SDS011;5256;48.728;9.140;2023-07-02T01:34:13;0.33;;;0.33;;
10418;SDS011;5256;48.728;9.140;2023-07-02T01:36:39;0.30;;;0.30;;
10418;SDS011;5256;48.728;9.140;2023-07-02T01:39:05;0.30;;;0.30;;
10418;SDS011;5256;48.728;9.140;2023-07-02T01:41:33;0.30;;;0.30;;
10418;SDS011;5256;48.728;9.140;2023-07-02T01:44:02;0.30;;;0.30;;
10418;SDS011;5256;48.728;9.140;2023-07-02T01:46:28;0.30;;;0.30;;
10418;SDS011;5256;48.728;9.140;2023-07-02T01:48:53;0.40;;;0.40;;
10418;SDS011;5256;48.728;9.140;2023-07-02T01:51:19;0.30;;;0.30;;
10418;SDS011;5256;48.728;9.140;2023-07-02T01:53:45;0.33;;;0.33;;
10418;SDS011;5256;48.728;9.140;2023-07-02T01:56:10;0.30;;;0.30;;
10418;SDS011;5256;48.728;9.140;2023-07-02T01:58:36;0.40;;;0.40;;
10418;SDS011;5256;48.728;9.140;2023-07-02T02:01:01;0.40;;;0.40;;
10418;SDS011;5256;48.728;9.140;2023-07-02T02:03:27;0.40;;;0.40;;
10418;SDS011;5256;48.728;9.140;2023-07-02T02:05:52;0.40;;;0.40;;
10418;SDS011;5256;48.728;9.140;2023-07-02T02:08:18;0.30;;;0.30;;
10418;SDS011;5256;48.728;9.140;2023-07-02T02:10:43;0.30;;;0.30;;
10418;SDS011;5256;48.728;9.140;2023-07-02T02:13:09;0.20;;;0.20;;
10418;SDS011;5256;48.728;9.140;2023-07-02T02:15:34;0.30;;;0.30;;
10418;SDS011;5256;48.728;9.140;2023-07-02T02:18:00;0.30;;;0.30;;
10418;SDS011;5256;48.728;9.140;2023-07-02T02:20:26;0.47;;;0.47;;
10418;SDS011;5256;48.728;9.140;2023-07-02T02:22:51;0.30;;;0.30;;
10418;SDS011;5256;48.728;9.140;2023-07-02T02:25:17;0.30;;;0.30;;
10418;SDS011;5256;48.728;9.140;2023-07-02T02:27:42;0.30;;;0.30;;
10418;SDS011;5256;48.728;9.140;2023-07-02T02:30:08;0.37;;;0.37;;
10418;SDS011;5256;48.728;9.140;2023-07-02T02:32:34;0.30;;;0.30;;
10418;SDS011;5256;48.728;9.140;2023-07-02T02:34:59;0.30;;;0.30;;
10418;SDS011;5256;48.728;9.140;2023-07-02T02:37:25;0.30;;;0.30;;
10418;SDS011;5256;48.728;9.140;2023-07-02T02:39:50;0.30;;;0.30;;
10418;SDS011;5256;48.728;9.140;2023-07-02T02:42:16;0.20;;;0.20;;
10418;SDS011;5256;48.728;9.140;2023-07-02T02:44:41;0.30;;;0.30;;
10418;SDS011;5256;48.728;9.140;2023-07-02T02:47:07;0.30;;;0.30;;
10418;SDS011;5256;48.728;9.140;2023-07-02T02:49:32;0.30;;;0.30;;
10418;SDS011;5256;48.728;9.140;2023-07-02T02:51:58;0.20;;;0.20;;
10418;SDS011;5256;48.728;9.140;2023-07-02T02:54:24;0.30;;;0.30;;
10418;SDS011;5256;48.728;9.140;2023-07-02T02:56:49;0.20;;;0.20;;
10418;SDS011;5256;48.728;9.140;2023-07-02T02:59:15;0.40;;;0.40;;
10418;SDS011;5256;48.728;9.140;2023-07-02T03:01:40;0.40;;;0.40;;
10418;SDS011;5256;48.728;9.140;2023-07-02T03:04:06;0.30;;;0.30;;
10418;SDS011;5256;48.728;9.140;2023-07-02T03:06:33;0.30;;;0.30;;
10418;SDS011;5256;48.728;9.140;2023-07-02T03:08:58;0.30;;;0.30;;
10418;SDS011;5256;48.728;9.140;2023-07-02T03:11:24;0.40;;;0.40;;
10418;SDS011;5256;48.728;9.140;2023-07-02T03:13:50;0.30;;;0.30;;
10418;SDS011;5256;48.728;9.140;2023-07-02T03:16:15;0.33;;;0.33;;
10418;SDS011;5256;48.728;9.140;2023-07-02T03:18:41;0.30;;;0.30;;
10418;SDS011;5256;48.728;9.140;2023-07-02T03:21:06;0.30;;;0.30;;
10418;SDS011;5256;48.728;9.140;2023-07-02T03:23:32;0.40;;;0.40;;
10418;SDS011;5256;48.728;9.140;2023-07-02T03:25:57;0.30;;;0.30;;
10418;SDS011;5256;48.728;9.140;2023-07-02T03:28:23;0.30;;;0.30;;
10418;SDS011;5256;48.728;9.140;2023-07-02T03:30:48;0.40;;;0.40;;
10418;SDS011;5256;48.728;9.140;2023-07-02T03:33:14;0.30;;;0.30;;
10418;SDS011;5256;48.728;9.140;2023-07-02T03:35:39;0.33;;;0.33;;
10418;SDS011;5256;48.728;9.140;2023-07-02T03:38:05;0.30;;;0.30;;
10418;SDS011;5256;48.728;9.140;2023-07-02T03:40:33;0.50;;;0.50;;
10418;SDS011;5256;48.728;9.140;2023-07-02T03:42:59;0.30;;;0.30;;
10418;SDS011;5256;48.728;9.140;2023-07-02T03:45:25;0.30;;;0.30;;
10418;SDS011;5256;48.728;9.140;2023-07-02T03:47:50;0.40;;;0.40;;
10418;SDS011;5256;48.728;9.140;2023-07-02T03:50:16;0.30;;;0.30;;
10418;SDS011;5256;48.728;9.140;2023-07-02T03:52:42;0.30;;;0.30;;
10418;SDS011;5256;48.728;9.140;2023-07-02T03:55:08;0.40;;;0.40;;
10418;SDS011;5256;48.728;9.140;2023-07-02T03:57:34;0.30;;;0.30;;
10418;SDS011;5256;48.728;9.140;2023-07-02T03:59:59;0.30;;;0.30;;
10418;SDS011;5256;48.728;9.140;2023-07-02T04:02:25;0.40;;;0.40;;
10418;SDS011;5256;48.728;9.140;2023-07-02T04:04:50;0.30;;;0.30;;
10418;SDS011;5256;48.728;9.140;2023-07-02T04:07:16;0.30;;;0.30;;
10418;SDS011;5256;48.728;9.140;2023-07-02T04:09:41;0.30;;;0.30;;
10418;SDS011;5256;48.728;9.140;2023-07-02T04:12:07;0.30;;;0.30;;
10418;SDS011;5256;48.728;9.140;2023-07-02T04:14:33;0.33;;;0.33;;
10418;SDS011;5256;48.728;9.140;2023-07-02T04:16:58;0.40;;;0.40;;
10418;SDS011;5256;48.728;9.140;2023-07-02T04:19:24;0.40;;;0.40;;
10418;SDS011;5256;48.728;9.140;2023-07-02T04:21:49;0.40;;;0.40;;
10418;SDS011;5256;48.728;9.140;2023-07-02T04:24:15;0.30;;;0.30;;
10418;SDS011;5256;48.728;9.140;2023-07-02T04:26:40;0.30;;;0.30;;
10418;SDS011;5256;48.728;9.140;2023-07-02T04:29:07;0.30;;;0.30;;
10418;SDS011;5256;48.728;9.140;2023-07-02T04:31:34;0.30;;;0.30;;
10418;SDS011;5256;48.728;9.140;2023-07-02T04:34:00;0.40;;;0.40;;
10418;SDS011;5256;48.728;9.140;2023-07-02T04:36:25;0.30;;;0.30;;
10418;SDS011;5256;48.728;9.140;2023-07-02T04:38:51;0.40;;;0.40;;
10418;SDS011;5256;48.728;9.140;2023-07-02T04:41:17;0.30;;;0.30;;
10418;SDS011;5256;48.728;9.140;2023-07-02T04:43:43;0.30;;;0.30;;
10418;SDS011;5256;48.728;9.140;2023-07-02T04:46:10;0.30;;;0.30;;
10418;SDS011;5256;48.728;9.140;2023-07-02T04:48:37;0.30;;;0.30;;
10418;SDS011;5256;48.728;9.140;2023-07-02T04:51:03;0.43;;;0.43;;
10418;SDS011;5256;48.728;9.140;2023-07-02T04:53:28;0.30;;;0.30;;
10418;SDS011;5256;48.728;9.140;2023-07-02T04:55:54;0.30;;;0.30;;
10418;SDS011;5256;48.728;9.140;2023-07-02T04:58:20;0.30;;;0.30;;
10418;SDS011;5256;48.728;9.140;2023-07-02T05:00:45;0.40;;;0.40;;
10418;SDS011;5256;48.728;9.140;2023-07-02T05:03:11;0.30;;;0.30;;
10418;SDS011;5256;48.728;9.140;2023-07-02T05:05:36;0.30;;;0.30;;
10418;SDS011;5256;48.728;9.140;2023-07-02T05:08:02;0.30;;;0.30;;
10418;SDS011;5256;48.728;9.140;2023-07-02T05:10:29;0.30;;;0.30;;
10418;SDS011;5256;48.728;9.140;2023-07-02T05:12:55;0.30;;;0.30;;
10418;SDS011;5256;48.728;9.140;2023-07-02T05:15:20;0.30;;;0.30;;
10418;SDS011;5256;48.728;9.140;2023-07-02T05:17:46;0.30;;;0.30;;
10418;SDS011;5256;48.728;9.140;2023-07-02T05:20:11;0.40;;;0.40;;
10418;SDS011;5256;48.728;9.140;2023-07-02T05:22:37;0.40;;;0.40;;
10418;SDS011;5256;48.728;9.140;2023-07-02T05:25:03;0.30;;;0.30;;
10418;SDS011;5256;48.728;9.140;2023-07-02T05:27:28;0.30;;;0.30;;
10418;SDS011;5256;48.728;9.140;2023-07-02T05:29:54;0.30;;;0.30;;
10418;SDS011;5256;48.728;9.140;2023-07-02T05:32:19;0.30;;;0.30;;
10418;SDS011;5256;48.728;9.140;2023-07-02T05:34:45;0.30;;;0.30;;
10418;SDS011;5256;48.728;9.140;2023-07-02T05:37:10;0.40;;;0.40;;
10418;SDS011;5256;48.728;9.140;2023-07-02T05:39:36;0.40;;;0.40;;
10418;SDS011;5256;48.728;9.140;2023-07-02T05:42:01;0.30;;;0.30;;
10418;SDS011;5256;48.728;9.140;2023-07-02T05:44:27;0.30;;;0.30;;
10418;SDS011;5256;48.728;9.140;2023-07-02T05:46:52;0.40;;;0.40;;
10418;SDS011;5256;48.728;9.140;2023-07-02T05:49:18;0.37;;;0.37;;
10418;SDS011;5256;48.728;9.140;2023-07-02T05:51:43;0.30;;;0.30;;
10418;SDS011;5256;48.728;9.140;2023-07-02T05:54:09;0.20;;;0.20;;
10418;SDS011;5256;48.728;9.140;2023-07-02T05:56:34;0.30;;;0.30;;
10418;SDS011;5256;48.728;9.140;2023-07-02T05:59:00;0.30;;;0.30;;
10418;SDS011;5256;48.728;9.140;2023-07-02T06:01:25;0.20;;;0.20;;
10418;SDS011;5256;48.728;9.140;2023-07-02T06:03:51;0.30;;;0.30;;
10418;SDS011;5256;48.728;9.140;2023-07-02T06:06:17;0.20;;;0.20;;
10418;SDS011;5256;48.728;9.140;2023-07-02T06:08:42;0.20;;;0.20;;
10418;SDS011;5256;48.728;9.140;2023-07-02T06:11:09;0.30;;;0.30;;
10418;SDS011;5256;48.728;9.140;2023-07-02T06:13:35;0.27;;;0.27;;
10418;SDS011;5256;48.728;9.140;2023-07-02T06:16:01;0.30;;;0.30;;
10418;SDS011;5256;48.728;9.140;2023-07-02T06:18:26;0.20;;;0.20;;
10418;SDS011;5256;48.728;9.140;2023-07-02T06:20:52;0.20;;;0.20;;
10418;SDS011;5256;48.728;9.140;2023-07-02T06:23:17;0.30;;;0.30;;
10418;SDS011;5256;48.728;9.140;2023-07-02T06:25:43;0.20;;;0.20;;
10418;SDS011;5256;48.728;9.140;2023-07-02T06:28:09;0.30;;;0.30;;
10418;SDS011;5256;48.728;9.140;2023-07-02T06:30:35;0.20;;;0.20;;
10418;SDS011;5256;48.728;9.140;2023-07-02T06:33:00;0.20;;;0.20;;
10418;SDS011;5256;48.728;9.140;2023-07-02T06:35:26;0.23;;;0.23;;
10418;SDS011;5256;48.728;9.140;2023-07-02T06:37:51;0.20;;;0.20;;
10418;SDS011;5256;48.728;9.140;2023-07-02T06:40:17;0.27;;;0.27;;
10418;SDS011;5256;48.728;9.140;2023-07-02T06:42:43;0.20;;;0.20;;
10418;SDS011;5256;48.728;9.140;2023-07-02T06:45:08;0.20;;;0.20;;
10418;SDS011;5256;48.728;9.140;2023-07-02T06:47:34;0.30;;;0.30;;
10418;SDS011;5256;48.728;9.140;2023-07-02T06:50:00;0.20;;;0.20;;
10418;SDS011;5256;48.728;9.140;2023-07-02T06:52:25;0.20;;;0.20;;
10418;SDS011;5256;48.728;9.140;2023-07-02T06:54:51;0.20;;;0.20;;
10418;SDS011;5256;48.728;9.140;2023-07-02T06:57:17;0.30;;;0.30;;
10418;SDS011;5256;48.728;9.140;2023-07-02T06:59:42;0.30;;;0.30;;
10418;SDS011;5256;48.728;9.140;2023-07-02T07:02:08;0.30;;;0.30;;
10418;SDS011;5256;48.728;9.140;2023-07-02T07:04:33;0.40;;;0.40;;
10418;SDS011;5256;48.728;9.140;2023-07-02T07:07:02;0.30;;;0.30;;
10418;SDS011;5256;48.728;9.140;2023-07-02T07:09:31;0.30;;;0.30;;
10418;SDS011;5256;48.728;9.140;2023-07-02T07:11:57;0.20;;;0.20;;
10418;SDS011;5256;48.728;9.140;2023-07-02T07:14:22;0.30;;;0.30;;
10418;SDS011;5256;48.728;9.140;2023-07-02T07:16:48;0.30;;;0.30;;
10418;SDS011;5256;48.728;9.140;2023-07-02T07:19:14;0.20;;;0.20;;
10418;SDS011;5256;48.728;9.140;2023-07-02T07:21:40;0.30;;;0.30;;
10418;SDS011;5256;48.728;9.140;2023-07-02T07:24:05;0.30;;;0.30;;
10418;SDS011;5256;48.728;9.140;2023-07-02T07:26:31;0.20;;;0.20;;
10418;SDS011;5256;48.728;9.140;2023-07-02T07:28:57;0.30;;;0.30;;
10418;SDS011;5256;48.728;9.140;2023-07-02T07:31:23;0.20;;;0.20;;
10418;SDS011;5256;48.728;9.140;2023-07-02T07:33:49;0.20;;;0.20;;
10418;SDS011;5256;48.728;9.140;2023-07-02T07:36:14;0.30;;;0.30;;
10418;SDS011;5256;48.728;9.140;2023-07-02T07:38:42;0.20;;;0.20;;
10418;SDS011;5256;48.728;9.140;2023-07-02T07:41:08;0.20;;;0.20;;
10418;SDS011;5256;48.728;9.140;2023-07-02T07:43:34;0.30;;;0.30;;
10418;SDS011;5256;48.728;9.140;2023-07-02T07:45:59;0.10;;;0.10;;
10418;SDS011;5256;48.728;9.140;2023-07-02T07:48:25;0.20;;;0.20;;
10418;SDS011;5256;48.728;9.140;2023-07-02T07:50:50;0.20;;;0.20;;
10418;SDS011;5256;48.728;9.140;2023-07-02T07:53:16;0.30;;;0.30;;
10418;SDS011;5256;48.728;9.140;2023-07-02T07:55:41;0.20;;;0.20;;
10418;SDS011;5256;48.728;9.140;2023-07-02T07:58:07;0.20;;;0.20;;
10418;SDS011;5256;48.728;9.140;2023-07-02T08:00:33;0.20;;;0.20;;
10418;SDS011;5256;48.728;9.140;2023-07-02T08:02:58;0.20;;;0.20;;
10418;SDS011;5256;48.728;9.140;2023-07-02T08:05:25;0.20;;;0.20;;
10418;SDS011;5256;48.728;9.140;2023-07-02T08:07:51;0.20;;;0.20;;
10418;SDS011;5256;48.728;9.140;2023-07-02T08:10:18;0.20;;;0.20;;
10418;SDS011;5256;48.728;9.140;2023-07-02T08:12:44;0.20;;;0.20;;
10418;SDS011;5256;48.728;9.140;2023-07-02T08:15:11;0.20;;;0.20;;
10418;SDS011;5256;48.728;9.140;2023-07-02T08:17:36;0.20;;;0.20;;
10418;SDS011;5256;48.728;9.140;2023-07-02T08:20:02;0.20;;;0.20;;
10418;SDS011;5256;48.728;9.140;2023-07-02T08:22:29;0.30;;;0.30;;
10418;SDS011;5256;48.728;9.140;2023-07-02T08:24:55;0.20;;;0.20;;
10418;SDS011;5256;48.728;9.140;2023-07-02T08:27:21;0.20;;;0.20;;
10418;SDS011;5256;48.728;9.140;2023-07-02T08:29:48;0.20;;;0.20;;
10418;SDS011;5256;48.728;9.140;2023-07-02T08:32:14;0.20;;;0.20;;
10418;SDS011;5256;48.728;9.140;2023-07-02T08:34:40;0.20;;;0.20;;
10418;SDS011;5256;48.728;9.140;2023-07-02T08:37:06;0.23;;;0.23;;
10418;SDS011;5256;48.728;9.140;2023-07-02T08:39:32;0.20;;;0.20;;
10418;SDS011;5256;48.728;9.140;2023-07-02T08:41:57;0.20;;;0.20;;
10418;SDS011;5256;48.728;9.140;2023-07-02T08:44:23;0.20;;;0.20;;
10418;SDS011;5256;48.728;9.140;2023-07-02T08:46:51;0.30;;;0.30;;
10418;SDS011;5256;48.728;9.140;2023-07-02T08:49:20;0.20;;;0.20;;
10418;SDS011;5256;48.728;9.140;2023-07-02T08:51:46;0.30;;;0.30;;
10418;SDS011;5256;48.728;9.140;2023-07-02T08:54:12;0.20;;;0.20;;
10418;SDS011;5256;48.728;9.140;2023-07-02T08:56:40;0.30;;;0.30;;
10418;SDS011;5256;48.728;9.140;2023-07-02T08:59:07;0.20;;;0.20;;
10418;SDS011;5256;48.728;9.140;2023-07-02T09:01:33;0.30;;;0.30;;
10418;SDS011;5256;48.728;9.140;2023-07-02T09:04:14;0.20;;;0.20;;
10418;SDS011;5256;48.728;9.140;2023-07-02T09:06:41;0.27;;;0.27;;
10418;SDS011;5256;48.728;9.140;2023-07-02T09:09:07;0.30;;;0.30;;
10418;SDS011;5256;48.728;9.140;2023-07-02T09:11:33;0.20;;;0.20;;
10418;SDS011;5256;48.728;9.140;2023-07-02T09:13:59;0.20;;;0.20;;
10418;SDS011;5256;48.728;9.140;2023-07-02T09:16:26;0.37;;;0.37;;
10418;SDS011;5256;48.728;9.140;2023-07-02T09:19:05;0.20;;;0.20;;
10418;SDS011;5256;48.728;9.140;2023-07-02T09:21:44;0.23;;;0.23;;
10418;SDS011;5256;48.728;9.140;2023-07-02T09:24:17;0.20;;;0.20;;
10418;SDS011;5256;48.728;9.140;2023-07-02T09:26:51;0.20;;;0.20;;
10418;SDS011;5256;48.728;9.140;2023-07-02T09:31:49;0.23;;;0.23;;
10418;SDS011;5256;48.728;9.140;2023-07-02T09:34:16;0.20;;;0.20;;
10418;SDS011;5256;48.728;9.140;2023-07-02T09:36:42;0.20;;;0.20;;
10418;SDS011;5256;48.728;9.140;2023-07-02T09:39:12;0.20;;;0.20;;
10418;SDS011;5256;48.728;9.140;2023-07-02T09:41:40;0.20;;;0.20;;
10418;SDS011;5256;48.728;9.140;2023-07-02T09:44:07;0.20;;;0.20;;
10418;SDS011;5256;48.728;9.140;2023-07-02T09:46:41;0.30;;;0.30;;
10418;SDS011;5256;48.728;9.140;2023-07-02T09:49:11;0.20;;;0.20;;
10418;SDS011;5256;48.728;9.140;2023-07-02T09:51:41;0.20;;;0.20;;
10418;SDS011;5256;48.728;9.140;2023-07-02T09:54:08;0.30;;;0.30;;
10418;SDS011;5256;48.728;9.140;2023-07-02T09:56:35;0.20;;;0.20;;
10418;SDS011;5256;48.728;9.140;2023-07-02T09:59:01;0.30;;;0.30;;
10418;SDS011;5256;48.728;9.140;2023-07-02T10:01:26;0.30;;;0.30;;
10418;SDS011;5256;48.728;9.140;2023-07-02T10:03:52;0.20;;;0.20;;
10418;SDS011;5256;48.728;9.140;2023-07-02T10:06:18;0.30;;;0.30;;
10418;SDS011;5256;48.728;9.140;2023-07-02T10:08:55;0.30;;;0.30;;
10418;SDS011;5256;48.728;9.140;2023-07-02T10:11:21;0.20;;;0.20;;
10418;SDS011;5256;48.728;9.140;2023-07-02T10:13:59;0.20;;;0.20;;
10418;SDS011;5256;48.728;9.140;2023-07-02T10:16:25;0.20;;;0.20;;
10418;SDS011;5256;48.728;9.140;2023-07-02T10:18:52;0.27;;;0.27;;
10418;SDS011;5256;48.728;9.140;2023-07-02T10:21:19;0.20;;;0.20;;
10418;SDS011;5256;48.728;9.140;2023-07-02T10:23:45;0.10;;;0.10;;
10418;SDS011;5256;48.728;9.140;2023-07-02T10:26:15;0.20;;;0.20;;
10418;SDS011;5256;48.728;9.140;2023-07-02T10:29:17;0.10;;;0.10;;
10418;SDS011;5256;48.728;9.140;2023-07-02T10:31:49;0.13;;;0.13;;
10418;SDS011;5256;48.728;9.140;2023-07-02T10:34:16;0.20;;;0.20;;
10418;SDS011;5256;48.728;9.140;2023-07-02T10:36:55;0.20;;;0.20;;
10418;SDS011;5256;48.728;9.140;2023-07-02T10:39:21;0.20;;;0.20;;
10418;SDS011;5256;48.728;9.140;2023-07-02T10:41:47;0.20;;;0.20;;
10418;SDS011;5256;48.728;9.140;2023-07-02T10:44:12;0.20;;;0.20;;
10418;SDS011;5256;48.728;9.140;2023-07-02T10:46:44;0.10;;;0.10;;
10418;SDS011;5256;48.728;9.140;2023-07-02T10:49:11;0.20;;;0.20;;
10418;SDS011;5256;48.728;9.140;2023-07-02T10:51:37;0.20;;;0.20;;
10418;SDS011;5256;48.728;9.140;2023-07-02T10:54:03;0.20;;;0.20;;
10418;SDS011;5256;48.728;9.140;2023-07-02T10:56:30;0.20;;;0.20;;
10418;SDS011;5256;48.728;9.140;2023-07-02T10:58:56;0.20;;;0.20;;
10418;SDS011;5256;48.728;9.140;2023-07-02T11:01:23;0.17;;;0.17;;
10418;SDS011;5256;48.728;9.140;2023-07-02T11:03:55;0.20;;;0.20;;
10418;SDS011;5256;48.728;9.140;2023-07-02T11:06:25;0.13;;;0.13;;
10418;SDS011;5256;48.728;9.140;2023-07-02T11:08:52;0.27;;;0.27;;
10418;SDS011;5256;48.728;9.140;2023-07-02T11:11:19;0.20;;;0.20;;
10418;SDS011;5256;48.728;9.140;2023-07-02T11:13:45;0.20;;;0.20;;
10418;SDS011;5256;48.728;9.140;2023-07-02T11:16:24;0.20;;;0.20;;
10418;SDS011;5256;48.728;9.140;2023-07-02T11:19:09;0.30;;;0.30;;
10418;SDS011;5256;48.728;9.140;2023-07-02T11:21:35;0.20;;;0.20;;
10418;SDS011;5256;48.728;9.140;2023-07-02T11:24:05;0.20;;;0.20;;
10418;SDS011;5256;48.728;9.140;2023-07-02T11:26:39;0.20;;;0.20;;
10418;SDS011;5256;48.728;9.140;2023-07-02T11:29:12;0.20;;;0.20;;
10418;SDS011;5256;48.728;9.140;2023-07-02T11:31:38;0.13;;;0.13;;
10418;SDS011;5256;48.728;9.140;2023-07-02T11:34:13;0.20;;;0.20;;
10418;SDS011;5256;48.728;9.140;2023-07-02T11:36:40;0.20;;;0.20;;
10418;SDS011;5256;48.728;9.140;2023-07-02T11:39:05;0.10;;;0.10;;
10418;SDS011;5256;48.728;9.140;2023-07-02T11:41:41;0.20;;;0.20;;
10418;SDS011;5256;48.728;9.140;2023-07-02T11:44:08;0.20;;;0.20;;
10418;SDS011;5256;48.728;9.140;2023-07-02T11:46:34;0.10;;;0.10;;
10418;SDS011;5256;48.728;9.140;2023-07-02T11:49:00;0.30;;;0.30;;
10418;SDS011;5256;48.728;9.140;2023-07-02T11:51:26;0.20;;;0.20;;
10418;SDS011;5256;48.728;9.140;2023-07-02T11:53:52;0.20;;;0.20;;
10418;SDS011;5256;48.728;9.140;2023-07-02T11:56:18;0.20;;;0.20;;
10418;SDS011;5256;48.728;9.140;2023-07-02T11:58:43;0.30;;;0.30;;
10418;SDS011;5256;48.728;9.140;2023-07-02T12:01:09;0.30;;;0.30;;
10418;SDS011;5256;48.728;9.140;2023-07-02T12:03:34;0.17;;;0.17;;
10418;SDS011;5256;48.728;9.140;2023-07-02T12:06:00;0.20;;;0.20;;
10418;SDS011;5256;48.728;9.140;2023-07-02T12:08:26;0.20;;;0.20;;
10418;SDS011;5256;48.728;9.140;2023-07-02T12:10:51;0.20;;;0.20;;
10418;SDS011;5256;48.728;9.140;2023-07-02T12:13:17;0.20;;;0.20;;
10418;SDS011;5256;48.728;9.140;2023-07-02T12:15:45;0.27;;;0.27;;
10418;SDS011;5256;48.728;9.140;2023-07-02T12:18:12;0.20;;;0.20;;
10418;SDS011;5256;48.728;9.140;2023-07-02T12:20:38;0.10;;;0.10;;
10418;SDS011;5256;48.728;9.140;2023-07-02T12:23:04;0.20;;;0.20;;
10418;SDS011;5256;48.728;9.140;2023-07-02T12:25:30;0.20;;;0.20;;
10418;SDS011;5256;48.728;9.140;2023-07-02T12:27:56;0.23;;;0.23;;
10418;SDS011;5256;48.728;9.140;2023-07-02T12:30:21;0.20;;;0.20;;
10418;SDS011;5256;48.728;9.140;2023-07-02T12:32:47;0.20;;;0.20;;
10418;SDS011;5256;48.728;9.140;2023-07-02T12:35:13;0.20;;;0.20;;
10418;SDS011;5256;48.728;9.140;2023-07-02T12:37:42;0.20;;;0.20;;
10418;SDS011;5256;48.728;9.140;2023-07-02T12:40:09;0.20;;;0.20;;
10418;SDS011;5256;48.728;9.140;2023-07-02T12:42:35;0.20;;;0.20;;
10418;SDS011;5256;48.728;9.140;2023-07-02T12:45:00;0.10;;;0.10;;
10418;SDS011;5256;48.728;9.140;2023-07-02T12:47:26;0.20;;;0.20;;
10418;SDS011;5256;48.728;9.140;2023-07-02T12:49:51;0.20;;;0.20;;
10418;SDS011;5256;48.728;9.140;2023-07-02T12:52:17;0.20;;;0.20;;
10418;SDS011;5256;48.728;9.140;2023-07-02T12:54:43;0.30;;;0.30;;
10418;SDS011;5256;48.728;9.140;2023-07-02T12:57:09;0.23;;;0.23;;
10418;SDS011;5256;48.728;9.140;2023-07-02T12:59:35;0.20;;;0.20;;
10418;SDS011;5256;48.728;9.140;2023-07-02T13:02:00;0.10;;;0.10;;
10418;SDS011;5256;48.728;9.140;2023-07-02T13:04:26;0.17;;;0.17;;
10418;SDS011;5256;48.728;9.140;2023-07-02T13:06:52;0.20;;;0.20;;
10418;SDS011;5256;48.728;9.140;2023-07-02T13:09:17;0.20;;;0.20;;
10418;SDS011;5256;48.728;9.140;2023-07-02T13:11:43;0.20;;;0.20;;
10418;SDS011;5256;48.728;9.140;2023-07-02T13:14:08;0.20;;;0.20;;
10418;SDS011;5256;48.728;9.140;2023-07-02T13:16:34;0.20;;;0.20;;
10418;SDS011;5256;48.728;9.140;2023-07-02T13:18:59;0.20;;;0.20;;
10418;SDS011;5256;48.728;9.140;2023-07-02T13:21:26;0.20;;;0.20;;
10418;SDS011;5256;48.728;9.140;2023-07-02T13:23:52;0.20;;;0.20;;
10418;SDS011;5256;48.728;9.140;2023-07-02T13:26:18;0.20;;;0.20;;
10418;SDS011;5256;48.728;9.140;2023-07-02T13:28:44;0.20;;;0.20;;
10418;SDS011;5256;48.728;9.140;2023-07-02T13:31:13;0.20;;;0.20;;
10418;SDS011;5256;48.728;9.140;2023-07-02T13:33:39;0.20;;;0.20;;
10418;SDS011;5256;48.728;9.140;2023-07-02T13:36:05;0.20;;;0.20;;
10418;SDS011;5256;48.728;9.140;2023-07-02T13:38:31;0.20;;;0.20;;
10418;SDS011;5256;48.728;9.140;2023-07-02T13:40:57;0.23;;;0.23;;
10418;SDS011;5256;48.728;9.140;2023-07-02T13:43:22;0.20;;;0.20;;
10418;SDS011;5256;48.728;9.140;2023-07-02T13:45:48;0.20;;;0.20;;
10418;SDS011;5256;48.728;9.140;2023-07-02T13:48:13;0.20;;;0.20;;
10418;SDS011;5256;48.728;9.140;2023-07-02T13:50:39;0.30;;;0.30;;
10418;SDS011;5256;48.728;9.140;2023-07-02T13:53:05;0.20;;;0.20;;
10418;SDS011;5256;48.728;9.140;2023-07-02T13:55:30;0.10;;;0.10;;
10418;SDS011;5256;48.728;9.140;2023-07-02T13:57:56;0.10;;;0.10;;
10418;SDS011;5256;48.728;9.140;2023-07-02T14:00:26;0.20;;;0.20;;
10418;SDS011;5256;48.728;9.140;2023-07-02T14:02:52;0.20;;;0.20;;
10418;SDS011;5256;48.728;9.140;2023-07-02T14:05:18;0.13;;;0.13;;
10418;SDS011;5256;48.728;9.140;2023-07-02T14:07:44;0.10;;;0.10;;
10418;SDS011;5256;48.728;9.140;2023-07-02T14:10:10;0.10;;;0.10;;
10418;SDS011;5256;48.728;9.140;2023-07-02T14:12:37;0.10;;;0.10;;
10418;SDS011;5256;48.728;9.140;2023-07-02T14:15:03;0.10;;;0.10;;
10418;SDS011;5256;48.728;9.140;2023-07-02T14:17:29;0.10;;;0.10;;
10418;SDS011;5256;48.728;9.140;2023-07-02T14:19:55;0.10;;;0.10;;
10418;SDS011;5256;48.728;9.140;2023-07-02T14:22:20;0.10;;;0.10;;
10418;SDS011;5256;48.728;9.140;2023-07-02T14:24:46;0.13;;;0.13;;
10418;SDS011;5256;48.728;9.140;2023-07-02T14:27:11;0.10;;;0.10;;
10418;SDS011;5256;48.728;9.140;2023-07-02T14:29:37;0.10;;;0.10;;
10418;SDS011;5256;48.728;9.140;2023-07-02T14:32:03;0.10;;;0.10;;
10418;SDS011;5256;48.728;9.140;2023-07-02T14:34:29;0.10;;;0.10;;
10418;SDS011;5256;48.728;9.140;2023-07-02T14:36:55;0.10;;;0.10;;
10418;SDS011;5256;48.728;9.140;2023-07-02T14:39:21;0.10;;;0.10;;
10418;SDS011;5256;48.728;9.140;2023-07-02T14:41:47;0.10;;;0.10;;
10418;SDS011;5256;48.728;9.140;2023-07-02T14:44:13;0.10;;;0.10;;
10418;SDS011;5256;48.728;9.140;2023-07-02T14:46:39;0.10;;;0.10;;
10418;SDS011;5256;48.728;9.140;2023-07-02T14:49:04;0.00;;;0.00;;
10418;SDS011;5256;48.728;9.140;2023-07-02T14:51:30;0.17;;;0.17;;
10418;SDS011;5256;48.728;9.140;2023-07-02T14:53:56;0.10;;;0.10;;
10418;SDS011;5256;48.728;9.140;2023-07-02T14:56:22;0.10;;;0.10;;
10418;SDS011;5256;48.728;9.140;2023-07-02T14:58:47;0.10;;;0.10;;
10418;SDS011;5256;48.728;9.140;2023-07-02T15:01:13;0.20;;;0.20;;